Time,TemperatureF,DewpointF,PressureIn,WindDirection,WindDirectionDegrees,WindSpeedMPH,WindSpeedGustMPH,Humidity,HourlyPrecipIn,Conditions,Clouds,dailyrainin,SoftwareType,DateUTC
2013-07-20 00:11:00,80.0,30.0,-100.00,SSE,160,5.0,7.0,16,0.00,,,0.00,,2013-07-20 06:11:00,
2013-07-20 01:33:00,79.0,33.0,-100.00,South,191,4.0,6.0,18,0.00,,,0.00,,2013-07-20 07:33:00,
2013-07-20 01:44:00,79.0,33.0,-100.00,South,191,4.0,6.0,18,0.00,,,0.00,,2013-07-20 07:44:00,
2013-07-20 01:54:00,79.0,33.0,-100.00,South,191,4.0,6.0,18,0.00,,,0.00,,2013-07-20 07:54:00,
2013-07-20 02:01:00,78.0,33.0,-100.00,SW,236,3.0,5.0,19,0.00,,,0.00,,2013-07-20 08:01:00,
2013-07-20 02:11:00,78.0,33.0,-100.00,SW,236,3.0,5.0,19,0.00,,,0.00,,2013-07-20 08:11:00,
2013-07-20 02:22:00,78.0,33.0,-100.00,SW,236,3.0,5.0,19,0.00,,,0.00,,2013-07-20 08:22:00,
2013-07-20 02:44:00,73.0,36.0,-100.00,WSW,256,4.0,6.0,26,0.00,,,0.00,,2013-07-20 08:44:00,
2013-07-20 02:52:00,73.0,36.0,-100.00,WSW,256,4.0,6.0,26,0.00,,,0.00,,2013-07-20 08:52:00,
2013-07-20 03:01:00,73.0,36.0,-100.00,WSW,256,4.0,6.0,26,0.00,,,0.00,,2013-07-20 09:01:00,
2013-07-20 03:11:00,72.0,34.0,-100.00,WSW,243,1.0,3.0,24,0.00,,,0.00,,2013-07-20 09:11:00,
2013-07-20 03:22:00,72.0,34.0,-100.00,WSW,243,1.0,3.0,24,0.00,,,0.00,,2013-07-20 09:22:00,
2013-07-20 03:33:00,72.0,34.0,-100.00,WSW,243,1.0,3.0,24,0.00,,,0.00,,2013-07-20 09:33:00,
2013-07-20 03:43:00,72.0,35.0,-100.00,NNE,28,4.0,5.0,25,0.00,,,0.00,,2013-07-20 09:43:00,
2013-07-20 03:53:00,72.0,35.0,-100.00,NNE,28,4.0,5.0,25,0.00,,,0.00,,2013-07-20 09:53:00,
2013-07-20 04:01:00,72.0,35.0,-100.00,NNE,28,4.0,5.0,25,0.00,,,0.00,,2013-07-20 10:01:00,
2013-07-20 04:21:00,72.0,34.0,-100.00,NE,48,7.0,9.0,24,0.00,,,0.00,,2013-07-20 10:21:00,
2013-07-20 04:32:00,72.0,34.0,-100.00,NE,48,7.0,9.0,24,0.00,,,0.00,,2013-07-20 10:32:00,
2013-07-20 05:32:00,68.0,36.0,-100.00,North,11,3.0,4.0,30,0.00,,,0.00,,2013-07-20 11:32:00,
2013-07-20 07:32:00,62.0,38.0,-100.00,South,179,1.0,1.0,41,0.00,,,0.00,,2013-07-20 13:32:00,
2013-07-20 08:32:00,66.0,42.0,-100.00,NNW,343,4.0,5.0,42,0.00,,,0.00,,2013-07-20 14:32:00,
2013-07-20 08:53:00,68.0,44.0,-100.00,North,356,3.0,5.0,43,0.00,,,0.00,,2013-07-20 14:53:00,
2013-07-20 09:01:00,68.0,44.0,-100.00,North,356,3.0,5.0,43,0.00,,,0.00,,2013-07-20 15:01:00,
2013-07-20 09:11:00,68.0,44.0,-100.00,North,356,3.0,5.0,43,0.00,,,0.00,,2013-07-20 15:11:00,
2013-07-20 09:44:00,75.0,46.0,-100.00,NW,319,3.0,5.0,36,0.00,,,0.00,,2013-07-20 15:44:00,
2013-07-20 09:53:00,75.0,46.0,-100.00,NW,319,3.0,5.0,36,0.00,,,0.00,,2013-07-20 15:53:00,
2013-07-20 10:01:00,75.0,46.0,-100.00,NW,319,3.0,5.0,36,0.00,,,0.00,,2013-07-20 16:01:00,
2013-07-20 10:11:00,75.0,46.0,-100.00,NW,319,3.0,5.0,36,0.00,,,0.00,,2013-07-20 16:11:00,
2013-07-20 10:22:00,76.0,46.0,-100.00,North,4,6.0,8.0,35,0.00,,,0.00,,2013-07-20 16:22:00,
2013-07-20 10:32:00,76.0,46.0,-100.00,North,4,6.0,8.0,35,0.00,,,0.00,,2013-07-20 16:32:00,
2013-07-20 10:43:00,76.0,49.0,-100.00,NNE,25,6.0,8.0,39,0.00,,,0.00,,2013-07-20 16:43:00,
2013-07-20 10:52:00,76.0,49.0,-100.00,NNE,25,6.0,8.0,39,0.00,,,0.00,,2013-07-20 16:52:00,
2013-07-20 11:02:00,76.0,49.0,-100.00,NNE,25,6.0,8.0,39,0.00,,,0.00,,2013-07-20 17:02:00,
2013-07-20 11:11:00,76.0,49.0,-100.00,NNE,25,6.0,8.0,39,0.00,,,0.00,,2013-07-20 17:11:00,
2013-07-20 11:22:00,77.0,49.0,-100.00,NNE,31,7.0,9.0,37,0.00,,,0.00,,2013-07-20 17:22:00,
2013-07-20 11:32:00,77.0,49.0,-100.00,NNE,31,7.0,9.0,37,0.00,,,0.00,,2013-07-20 17:32:00,
2013-07-20 11:43:00,81.0,47.0,-100.00,NNE,24,6.0,9.0,31,0.00,,,0.00,,2013-07-20 17:43:00,
2013-07-20 11:53:00,81.0,47.0,-100.00,NNE,24,6.0,9.0,31,0.00,,,0.00,,2013-07-20 17:53:00,
2013-07-20 12:01:00,81.0,47.0,-100.00,NNE,24,6.0,9.0,31,0.00,,,0.00,,2013-07-20 18:01:00,
2013-07-20 12:11:00,81.0,47.0,-100.00,NNE,24,6.0,9.0,31,0.00,,,0.00,,2013-07-20 18:11:00,
2013-07-20 12:23:00,84.0,46.0,-100.00,North,352,6.0,9.0,27,0.00,,,0.00,,2013-07-20 18:23:00,
2013-07-20 12:34:00,84.0,46.0,-100.00,North,352,6.0,9.0,27,0.00,,,0.00,,2013-07-20 18:34:00,
2013-07-20 12:58:00,87.0,46.0,-100.00,West,274,2.0,4.0,25,0.00,,,0.00,,2013-07-20 18:58:00,
2013-07-20 13:04:00,87.0,46.0,-100.00,West,274,2.0,4.0,25,0.00,,,0.00,,2013-07-20 19:04:00,
2013-07-20 13:13:00,89.0,43.0,-100.00,North,353,3.0,5.0,20,0.00,,,0.00,,2013-07-20 19:13:00,
2013-07-20 13:23:00,89.0,43.0,-100.00,North,353,3.0,5.0,20,0.00,,,0.00,,2013-07-20 19:23:00,
2013-07-20 13:33:00,89.0,43.0,-100.00,North,353,3.0,5.0,20,0.00,,,0.00,,2013-07-20 19:33:00,
2013-07-20 13:56:00,92.0,38.0,-100.00,ENE,58,3.0,4.0,15,0.00,,,0.00,,2013-07-20 19:56:00,
2013-07-20 14:04:00,92.0,38.0,-100.00,ENE,58,3.0,4.0,15,0.00,,,0.00,,2013-07-20 20:04:00,
2013-07-20 14:13:00,92.0,38.0,-100.00,ENE,58,3.0,4.0,15,0.00,,,0.00,,2013-07-20 20:13:00,
2013-07-20 14:22:00,94.0,32.0,-100.00,SW,222,4.0,6.0,11,0.00,,,0.00,,2013-07-20 20:22:00,
2013-07-20 14:32:00,94.0,32.0,-100.00,SW,222,4.0,6.0,11,0.00,,,0.00,,2013-07-20 20:32:00,
2013-07-20 14:56:00,95.0,33.0,-100.00,NNW,335,3.0,5.0,11,0.00,,,0.00,,2013-07-20 20:56:00,
2013-07-20 15:02:00,95.0,33.0,-100.00,NNW,335,3.0,5.0,11,0.00,,,0.00,,2013-07-20 21:02:00,
2013-07-20 15:12:00,95.0,33.0,-100.00,NNW,335,3.0,5.0,11,0.00,,,0.00,,2013-07-20 21:12:00,
2013-07-20 15:33:00,94.0,37.0,-100.00,NNW,342,7.0,10.0,14,0.00,,,0.00,,2013-07-20 21:33:00,
2013-07-20 15:44:00,93.0,40.0,-100.00,NNE,21,5.0,8.0,15,0.00,,,0.00,,2013-07-20 21:44:00,
2013-07-20 15:55:00,93.0,40.0,-100.00,NNE,21,5.0,8.0,15,0.00,,,0.00,,2013-07-20 21:55:00,
2013-07-20 16:04:00,93.0,40.0,-100.00,NNE,21,5.0,8.0,15,0.00,,,0.00,,2013-07-20 22:04:00,
2013-07-20 16:12:00,93.0,40.0,-100.00,NNE,21,5.0,8.0,15,0.00,,,0.00,,2013-07-20 22:12:00,
2013-07-20 16:27:00,96.0,35.0,-100.00,WNW,282,5.0,7.0,12,0.00,,,0.00,,2013-07-20 22:27:00,
2013-07-20 16:36:00,96.0,35.0,-100.00,WNW,282,5.0,7.0,12,0.00,,,0.00,,2013-07-20 22:36:00,
2013-07-20 16:48:00,96.0,35.0,-100.00,WNW,282,5.0,7.0,12,0.00,,,0.00,,2013-07-20 22:48:00,
2013-07-20 16:55:00,96.0,35.0,-100.00,WNW,282,5.0,7.0,12,0.00,,,0.00,,2013-07-20 22:55:00,
2013-07-20 17:24:00,97.0,36.0,-100.00,WSW,248,6.0,10.0,12,0.00,,,0.00,,2013-07-20 23:24:00,
2013-07-20 17:34:00,97.0,33.0,-100.00,WSW,251,6.0,10.0,11,0.00,,,0.00,,2013-07-20 23:34:00,
2013-07-20 17:45:00,97.0,33.0,-100.00,WSW,251,6.0,10.0,11,0.00,,,0.00,,2013-07-20 23:45:00,
2013-07-20 17:56:00,97.0,33.0,-100.00,WSW,251,6.0,10.0,11,0.00,,,0.00,,2013-07-20 23:56:00,
2013-07-20 18:04:00,96.0,34.0,-100.00,West,270,6.0,10.0,11,0.00,,,0.00,,2013-07-21 00:04:00,
2013-07-20 18:14:00,96.0,34.0,-100.00,West,270,6.0,10.0,11,0.00,,,0.00,,2013-07-21 00:14:00,
2013-07-20 18:22:00,96.0,34.0,-100.00,West,270,6.0,10.0,11,0.00,,,0.00,,2013-07-21 00:22:00,
2013-07-20 18:45:00,96.0,32.0,-100.00,West,267,7.0,13.0,10,0.00,,,0.00,,2013-07-21 00:45:00,
2013-07-20 19:02:00,95.0,33.0,-100.00,West,264,6.0,12.0,11,0.00,,,0.00,,2013-07-21 01:02:00,
2013-07-20 19:11:00,95.0,33.0,-100.00,West,264,6.0,12.0,11,0.00,,,0.00,,2013-07-21 01:11:00,
2013-07-20 19:23:00,95.0,33.0,-100.00,West,264,6.0,12.0,11,0.00,,,0.00,,2013-07-21 01:23:00,
2013-07-20 19:33:00,95.0,33.0,-100.00,West,280,7.0,10.0,11,0.00,,,0.00,,2013-07-21 01:33:00,
2013-07-20 19:49:00,-999.0,-99.9,-100.00,West,280,7.0,10.0,-999,-99.99,,,-99.99,,2013-07-21 01:49:00,
2013-07-20 20:03:00,94.0,34.0,-100.00,West,264,4.0,11.0,12,0.00,,,0.00,,2013-07-21 02:03:00,
2013-07-20 20:13:00,94.0,34.0,-100.00,West,264,4.0,11.0,12,0.00,,,0.00,,2013-07-21 02:13:00,
2013-07-20 20:24:00,94.0,34.0,-100.00,West,264,4.0,11.0,12,0.00,,,0.00,,2013-07-21 02:24:00,
2013-07-20 20:33:00,93.0,34.0,-100.00,WSW,247,6.0,11.0,13,0.00,,,0.00,,2013-07-21 02:33:00,
2013-07-20 20:43:00,93.0,34.0,-100.00,WSW,247,6.0,11.0,13,0.00,,,0.00,,2013-07-21 02:43:00,
2013-07-20 20:57:00,93.0,34.0,-100.00,WSW,247,6.0,11.0,13,0.00,,,0.00,,2013-07-21 02:57:00,
2013-07-20 21:02:00,92.0,33.0,-100.00,WSW,241,5.0,11.0,13,0.00,,,0.00,,2013-07-21 03:02:00,
2013-07-20 21:14:00,92.0,33.0,-100.00,WSW,241,5.0,11.0,13,0.00,,,0.00,,2013-07-21 03:14:00,
2013-07-20 21:32:00,88.0,34.0,-100.00,WSW,244,3.0,7.0,14,0.00,,,0.00,,2013-07-21 03:32:00,
2013-07-20 21:46:00,88.0,34.0,-100.00,WSW,244,3.0,7.0,14,0.00,,,0.00,,2013-07-21 03:46:00,
2013-07-20 21:57:00,88.0,34.0,-100.00,WSW,244,3.0,7.0,14,0.00,,,0.00,,2013-07-21 03:57:00,
2013-07-20 22:01:00,86.0,32.0,-100.00,SW,236,2.0,6.0,15,0.00,,,0.00,,2013-07-21 04:01:00,
2013-07-20 22:11:00,86.0,32.0,-100.00,SW,236,2.0,6.0,15,0.00,,,0.00,,2013-07-21 04:11:00,
2013-07-20 22:22:00,86.0,32.0,-100.00,SW,236,2.0,6.0,15,0.00,,,0.00,,2013-07-21 04:22:00,
2013-07-20 23:01:00,85.0,32.0,-100.00,WSW,244,3.0,7.0,15,0.00,,,0.00,,2013-07-21 05:01:00,
2013-07-20 23:21:00,85.0,31.0,-100.00,WSW,244,3.0,7.0,15,0.00,,,0.00,,2013-07-21 05:21:00,